createdAt,value
2023-01-09T00:01:53.026Z,14.77
2023-01-09T00:06:55.922Z,12.75
2023-01-09T00:11:58.052Z,14.68
2023-01-09T00:17:00.249Z,13.97
2023-01-09T00:22:02.341Z,14.27
2023-01-09T00:27:05.340Z,14.13
2023-01-09T00:32:10.566Z,14.02
2023-01-09T00:37:13.164Z,13.80
2023-01-09T00:42:20.703Z,13.20
2023-01-09T00:47:31.370Z,13.20
2023-01-09T00:52:35.983Z,12.95
2023-01-09T00:57:38.243Z,13.10
2023-01-09T01:02:40.363Z,13.10
2023-01-09T01:07:43.367Z,12.70
2023-01-09T01:12:46.940Z,12.55
2023-01-09T01:17:49.147Z,13.05
2023-01-09T01:22:51.506Z,12.40
2023-01-09T01:27:53.608Z,11.40
2023-01-09T01:32:55.709Z,12.40
2023-01-09T01:37:57.785Z,11.43
2023-01-09T01:43:00.098Z,12.27
2023-01-09T01:48:15.677Z,12.25
2023-01-09T01:53:24.230Z,10.90
2023-01-09T01:58:27.857Z,10.77
2023-01-09T02:03:30.083Z,11.15
2023-01-09T02:08:32.542Z,10.75
2023-01-09T02:13:38.859Z,11.00
2023-01-09T02:18:54.085Z,10.48
2023-01-09T02:24:36.727Z,11.27
2023-01-09T02:30:16.293Z,11.20
2023-01-09T02:35:48.825Z,10.98
2023-01-09T02:40:59.021Z,10.80
2023-01-09T02:46:01.356Z,10.43
2023-01-09T02:51:13.643Z,10.63
2023-01-09T02:56:36.723Z,10.30
2023-01-09T03:01:49.903Z,11.23
2023-01-09T03:07:08.034Z,10.77
2023-01-09T03:12:25.247Z,10.73
2023-01-09T03:17:36.399Z,11.30
2023-01-09T03:22:40.595Z,11.43
2023-01-09T03:27:42.660Z,11.00
2023-01-09T03:32:44.731Z,11.57
2023-01-09T03:37:46.990Z,10.60
2023-01-09T03:42:49.168Z,10.80
2023-01-09T03:47:52.973Z,10.88
2023-01-09T03:52:55.181Z,11.05
2023-01-09T03:57:57.335Z,11.27
2023-01-09T04:02:59.450Z,10.93
2023-01-09T04:08:02.055Z,10.93
2023-01-09T04:13:04.121Z,11.23
2023-01-09T04:18:06.277Z,11.15
2023-01-09T04:23:08.738Z,11.05
2023-01-09T04:28:10.856Z,11.30
2023-01-09T04:33:12.948Z,10.63
2023-01-09T04:38:15.183Z,11.57
2023-01-09T04:43:17.423Z,12.18
2023-01-09T04:48:19.528Z,11.68
2023-01-09T04:53:21.601Z,11.55
2023-01-09T04:58:23.684Z,12.10
2023-01-09T05:03:25.764Z,11.73
2023-01-09T05:08:27.889Z,11.80
2023-01-09T05:13:30.419Z,12.20
2023-01-09T05:18:32.575Z,11.73
2023-01-09T05:23:34.679Z,12.07
2023-01-09T05:28:36.843Z,12.02
2023-01-09T05:33:38.943Z,12.30
2023-01-09T05:38:41.573Z,11.77
2023-01-09T05:43:43.703Z,11.95
2023-01-09T05:48:45.813Z,13.03
2023-01-09T05:53:48.340Z,19.25
2023-01-09T05:58:50.587Z,16.98
2023-01-09T06:03:52.712Z,12.68
2023-01-09T06:08:54.885Z,11.98
2023-01-09T06:13:57.096Z,13.13
2023-01-09T06:18:59.403Z,12.70
2023-01-09T06:24:01.553Z,12.95
2023-01-09T06:29:03.800Z,11.57
2023-01-09T06:34:05.935Z,11.12
2023-01-09T06:39:08.575Z,10.97
2023-01-09T06:44:10.756Z,11.85
2023-01-09T06:49:12.840Z,11.15
2023-01-09T06:54:14.925Z,10.88
2023-01-09T06:59:17.053Z,11.43
2023-01-09T07:04:21.833Z,11.93
2023-01-09T07:09:24.184Z,11.60
2023-01-09T07:14:26.336Z,11.77
2023-01-09T07:19:28.466Z,11.40
2023-01-09T07:24:30.580Z,10.88
2023-01-09T07:29:32.698Z,11.63
2023-01-09T07:34:34.887Z,11.57
2023-01-09T07:39:36.968Z,12.27
2023-01-09T07:44:39.035Z,11.30
2023-01-09T07:49:41.152Z,11.02
2023-01-09T07:54:43.252Z,10.87
2023-01-09T07:59:45.381Z,11.15
2023-01-09T08:04:47.490Z,10.85
2023-01-09T08:09:49.557Z,10.25
2023-01-09T08:14:52.030Z,9.50
2023-01-09T08:19:54.092Z,11.57
2023-01-09T08:24:56.281Z,11.10
2023-01-09T08:29:58.534Z,11.75
2023-01-09T08:35:00.817Z,10.23
2023-01-09T08:40:03.059Z,10.98
2023-01-09T08:45:24.118Z,11.60
2023-01-09T08:50:26.208Z,12.15
2023-01-09T08:55:28.341Z,11.82
2023-01-09T09:00:30.545Z,11.45
2023-01-09T09:05:33.047Z,12.85
2023-01-09T09:10:36.700Z,12.83
2023-01-09T09:15:39.131Z,13.02
2023-01-09T09:20:41.317Z,13.48
2023-01-09T09:25:43.971Z,14.15
2023-01-09T09:30:46.075Z,14.65
2023-01-09T09:35:48.176Z,14.40
2023-01-09T09:41:43.622Z,12.48
2023-01-09T09:47:18.460Z,13.75
2023-01-09T09:52:43.945Z,14.00
2023-01-09T09:57:47.222Z,14.57
2023-01-09T10:02:58.388Z,16.20
2023-01-09T10:08:16.294Z,14.18
2023-01-09T10:13:45.738Z,14.77
2023-01-09T10:18:47.979Z,15.80
2023-01-09T10:24:13.098Z,15.73
2023-01-09T10:29:49.805Z,15.87
2023-01-09T10:35:19.643Z,19.40
2023-01-09T10:40:37.113Z,17.70
2023-01-09T10:45:54.463Z,17.25
2023-01-09T10:50:57.414Z,17.92
2023-01-09T10:56:22.600Z,18.90
2023-01-09T11:01:28.418Z,17.58
2023-01-09T11:06:57.160Z,18.60
2023-01-09T11:11:59.278Z,18.35
2023-01-09T11:17:04.026Z,18.73
2023-01-09T11:22:09.407Z,18.97
2023-01-09T11:27:14.569Z,17.62
2023-01-09T11:32:24.368Z,17.83
2023-01-09T11:37:29.688Z,18.17
2023-01-09T11:42:50.494Z,17.37
2023-01-09T11:47:52.687Z,19.00
2023-01-09T11:53:15.087Z,18.65
2023-01-09T11:58:22.821Z,18.37
2023-01-09T12:03:40.149Z,19.08
2023-01-09T12:08:57.258Z,19.23
2023-01-09T12:13:59.256Z,18.80
2023-01-09T12:19:11.383Z,19.70
2023-01-09T12:24:13.436Z,20.27
2023-01-09T12:29:37.988Z,20.02
2023-01-09T12:34:49.099Z,22.45
2023-01-09T12:40:12.705Z,20.57
2023-01-09T12:45:24.152Z,18.83
2023-01-09T12:50:26.295Z,19.65
2023-01-09T12:55:34.367Z,19.58
2023-01-09T13:00:49.193Z,20.23
2023-01-09T13:05:53.539Z,20.60
2023-01-09T13:11:19.578Z,20.25
2023-01-09T13:16:28.853Z,18.77
2023-01-09T13:21:31.611Z,18.52
2023-01-09T13:26:44.190Z,19.30
2023-01-09T13:32:06.094Z,21.43
2023-01-09T13:37:22.586Z,20.73
2023-01-09T13:42:46.050Z,21.42
2023-01-09T13:48:11.050Z,20.17
2023-01-09T13:53:19.406Z,18.92
2023-01-09T13:58:22.827Z,19.93
2023-01-09T14:03:32.864Z,19.52
2023-01-09T14:08:35.293Z,19.27
2023-01-09T14:13:37.364Z,18.80
2023-01-09T14:18:46.383Z,19.90
2023-01-09T14:24:07.203Z,22.60
2023-01-09T14:29:28.539Z,23.15
2023-01-09T14:34:37.302Z,21.60
2023-01-09T14:39:43.150Z,22.70
2023-01-09T14:44:55.436Z,22.35
2023-01-09T14:50:08.559Z,20.13
2023-01-09T14:55:35.611Z,21.52
2023-01-09T15:00:46.137Z,22.05
2023-01-09T15:05:51.555Z,21.83
2023-01-09T15:10:56.083Z,22.70
2023-01-09T15:16:00.145Z,23.07
2023-01-09T15:21:03.861Z,23.83
2023-01-09T15:26:25.257Z,23.90
2023-01-09T15:31:28.646Z,21.12
2023-01-09T15:36:31.118Z,21.60
2023-01-09T15:41:51.867Z,20.87
2023-01-09T15:46:58.820Z,23.12
2023-01-09T15:52:01.626Z,24.15
2023-01-09T15:57:25.728Z,23.65
2023-01-09T16:02:46.499Z,24.45
2023-01-09T16:07:50.924Z,25.60
2023-01-09T16:12:54.719Z,25.73
2023-01-09T16:18:18.159Z,24.83
2023-01-09T16:23:30.229Z,30.40
2023-01-09T16:28:32.557Z,29.77
2023-01-09T16:33:35.388Z,28.40
2023-01-09T16:38:37.541Z,26.02
2023-01-09T16:43:39.628Z,24.98
2023-01-09T16:48:42.285Z,26.15
2023-01-09T16:53:45.144Z,25.12
2023-01-09T16:58:47.203Z,24.87
2023-01-09T17:03:49.927Z,24.25
2023-01-09T17:08:52.094Z,23.75
2023-01-09T17:13:54.247Z,22.73
2023-01-09T17:18:56.504Z,25.27
2023-01-09T17:24:18.062Z,26.23
2023-01-09T17:29:20.671Z,25.60
2023-01-09T17:34:22.811Z,25.42
2023-01-09T17:39:24.952Z,27.08
2023-01-09T17:44:27.111Z,26.58
2023-01-09T17:49:29.750Z,28.20
2023-01-09T17:54:32.585Z,27.13
2023-01-09T17:59:35.239Z,26.95
2023-01-09T18:04:39.199Z,26.02
2023-01-09T18:09:42.009Z,27.90
2023-01-09T18:14:44.062Z,27.63
2023-01-09T18:19:46.555Z,28.85
2023-01-09T18:24:48.718Z,27.37
2023-01-09T18:29:51.092Z,29.17
2023-01-09T18:34:53.197Z,28.70
2023-01-09T18:39:55.385Z,29.40
2023-01-09T18:44:57.496Z,28.85
2023-01-09T18:50:00.076Z,28.08
2023-01-09T18:55:02.185Z,28.58
2023-01-09T19:00:05.330Z,24.87
2023-01-09T19:05:08.930Z,22.03
2023-01-09T19:10:13.426Z,20.37
2023-01-09T19:15:18.898Z,21.83
2023-01-09T19:20:21.029Z,21.10
2023-01-09T19:25:23.463Z,20.55
2023-01-09T19:30:26.601Z,19.80
2023-01-09T19:35:28.914Z,20.00
2023-01-09T19:40:31.177Z,20.12
2023-01-09T19:45:33.350Z,19.15
2023-01-09T19:50:35.471Z,19.23
2023-01-09T19:55:38.928Z,17.97
2023-01-09T20:00:41.030Z,17.50
2023-01-09T20:05:43.132Z,17.60
2023-01-09T20:10:45.282Z,17.40
2023-01-09T20:15:47.736Z,15.60
2023-01-09T20:20:50.408Z,15.17
2023-01-09T20:25:54.599Z,15.90
2023-01-09T20:30:56.950Z,15.40
2023-01-09T20:36:02.864Z,15.63
2023-01-09T20:41:25.909Z,16.02
2023-01-09T20:46:30.635Z,14.90
2023-01-09T20:51:34.728Z,14.80
2023-01-09T20:56:36.959Z,14.80
2023-01-09T21:01:40.336Z,15.95
2023-01-09T21:06:42.785Z,14.75
2023-01-09T21:11:45.012Z,14.80
2023-01-09T21:16:54.528Z,13.93
2023-01-09T21:21:57.355Z,15.25
2023-01-09T21:26:59.521Z,15.68
2023-01-09T21:32:01.657Z,18.15
2023-01-09T21:37:03.932Z,17.70
2023-01-09T21:42:24.605Z,14.82
2023-01-09T21:47:26.769Z,17.08
2023-01-09T21:52:31.966Z,16.08
2023-01-09T21:57:34.072Z,15.75
2023-01-09T22:02:36.957Z,16.00
2023-01-09T22:07:39.141Z,14.77
2023-01-09T22:13:01.216Z,14.70
2023-01-09T22:18:03.378Z,14.77
2023-01-09T22:23:05.673Z,14.70
2023-01-09T22:28:10.256Z,14.87
2023-01-09T22:33:12.867Z,15.38
2023-01-09T22:38:15.015Z,19.80
2023-01-09T22:43:17.328Z,15.63
2023-01-09T22:48:19.404Z,15.32
2023-01-09T22:53:21.486Z,15.07
2023-01-09T22:58:25.480Z,15.95
2023-01-09T23:03:28.426Z,12.37
2023-01-09T23:08:31.285Z,12.35
2023-01-09T23:13:33.602Z,11.75
2023-01-09T23:18:35.810Z,10.30
2023-01-09T23:23:37.928Z,10.90
2023-01-09T23:28:40.534Z,11.15
2023-01-09T23:33:42.679Z,11.70
2023-01-09T23:38:44.866Z,10.77
2023-01-09T23:43:46.953Z,13.83
2023-01-09T23:48:49.019Z,15.60
2023-01-09T23:53:51.080Z,12.90
2023-01-09T23:58:53.338Z,12.82
